Time;durP1;ratioP1;P1;durP2;ratioP2;P2;SDS_P1;SDS_P2;PMS_P1;PMS_P2;Temp;Humidity;BMP_temperature;BMP_pressure;BME280_temperature;BME280_humidity;BME280_pressure;Samples;Min_cycle;Max_cycle;Signal;HPM_P1;HPM_P2
2023/06/06 00:00:22;;;;;;;3.33;2.63;;;16.60;99.90;;;;;;4862109;29;20687;-69
2023/06/06 00:02:49;;;;;;;5.90;2.70;;;16.60;99.90;;;;;;4887961;29;20205;-61
2023/06/06 00:05:20;;;;;;;3.37;3.00;;;16.60;99.90;;;;;;4882886;29;20252;-57
2023/06/06 00:07:48;;;;;;;4.80;3.27;;;16.60;99.90;;;;;;4874718;29;20193;-58
2023/06/06 00:10:17;;;;;;;3.87;3.10;;;16.40;99.90;;;;;;4868956;29;20220;-57
2023/06/06 00:12:46;;;;;;;6.50;3.50;;;16.40;99.90;;;;;;4863994;29;20201;-57
2023/06/06 00:15:15;;;;;;;4.07;3.33;;;16.40;99.90;;;;;;4875640;29;20240;-57
2023/06/06 00:17:44;;;;;;;6.43;3.63;;;16.40;99.90;;;;;;4872986;29;21505;-58
2023/06/06 00:20:13;;;;;;;5.37;3.47;;;16.30;99.90;;;;;;4886336;29;20210;-60
2023/06/06 00:22:41;;;;;;;5.27;3.30;;;16.40;99.90;;;;;;4888831;29;20212;-57
2023/06/06 00:25:08;;;;;;;3.17;2.27;;;16.30;99.90;;;;;;4890249;29;20205;-57
2023/06/06 00:27:36;;;;;;;3.73;3.20;;;16.30;99.90;;;;;;4876405;29;20785;-56
2023/06/06 00:30:05;;;;;;;4.30;3.07;;;16.30;99.90;;;;;;4890634;29;20196;-57
2023/06/06 00:32:32;;;;;;;4.17;3.13;;;16.20;99.90;;;;;;4893032;29;20207;-56
2023/06/06 00:34:59;;;;;;;4.57;2.80;;;16.30;99.90;;;;;;4852749;29;20204;-58
2023/06/06 00:37:26;;;;;;;5.07;3.43;;;16.30;99.90;;;;;;4888122;29;20204;-57
2023/06/06 00:39:53;;;;;;;5.40;3.03;;;16.30;99.90;;;;;;4882267;29;20273;-57
2023/06/06 00:42:20;;;;;;;4.27;2.93;;;16.20;99.90;;;;;;4870386;29;20225;-56
2023/06/06 00:44:47;;;;;;;4.73;3.47;;;16.10;99.90;;;;;;4876608;29;20196;-57
2023/06/06 00:47:15;;;;;;;5.63;3.00;;;16.00;99.90;;;;;;4886416;29;20193;-64
2023/06/06 00:49:45;;;;;;;4.17;2.90;;;16.00;99.90;;;;;;4881648;29;20296;-57
2023/06/06 00:52:13;;;;;;;4.43;3.20;;;15.90;99.90;;;;;;4873390;29;20583;-57
2023/06/06 00:54:42;;;;;;;5.05;3.05;;;15.90;99.90;;;;;;4891817;29;20682;-57
2023/06/06 00:57:09;;;;;;;5.53;2.83;;;15.90;99.90;;;;;;4876290;29;20209;-56
2023/06/06 00:59:38;;;;;;;4.57;3.83;;;15.80;99.90;;;;;;4874550;29;20205;-58
2023/06/06 01:02:10;;;;;;;4.70;3.50;;;15.80;99.90;;;;;;4888420;29;20217;-57
2023/06/06 01:04:40;;;;;;;5.07;2.73;;;15.80;99.90;;;;;;4864111;29;20212;-57
2023/06/06 01:07:09;;;;;;;10.07;3.57;;;15.70;99.90;;;;;;4872542;29;20969;-56
2023/06/06 01:09:39;;;;;;;5.80;3.00;;;15.60;99.90;;;;;;4866835;29;20201;-56
2023/06/06 01:12:15;;;;;;;5.63;2.63;;;15.60;99.90;;;;;;4862931;29;20204;-56
2023/06/06 01:15:16;;;;;;;5.03;3.00;;;15.60;99.90;;;;;;4885938;29;20269;-60
2023/06/06 01:17:46;;;;;;;4.50;2.83;;;15.60;99.90;;;;;;4872305;29;20656;-56
2023/06/06 01:20:15;;;;;;;4.67;3.40;;;15.60;99.90;;;;;;4869067;29;20205;-57
2023/06/06 01:22:43;;;;;;;5.37;3.30;;;15.60;99.90;;;;;;4867793;29;20321;-56
2023/06/06 01:25:12;;;;;;;5.90;3.17;;;15.60;99.90;;;;;;4871170;29;20202;-58
2023/06/06 01:27:39;;;;;;;5.00;3.23;;;15.50;99.90;;;;;;4869968;29;20197;-56
2023/06/06 01:30:07;;;;;;;4.23;2.93;;;15.40;99.90;;;;;;4870615;29;20186;-58
2023/06/06 01:32:34;;;;;;;5.27;3.10;;;15.40;99.90;;;;;;4872249;29;20605;-62
2023/06/06 01:35:22;;;;;;;5.70;3.50;;;15.50;99.90;;;;;;4855275;29;20202;-60
2023/06/06 01:37:52;;;;;;;6.40;3.50;;;15.40;99.90;;;;;;4862594;29;20256;-58
2023/06/06 01:40:21;;;;;;;7.17;3.43;;;15.40;99.90;;;;;;4868193;29;20714;-59
2023/06/06 01:42:50;;;;;;;4.27;3.60;;;15.40;99.90;;;;;;4875901;29;20381;-64
2023/06/06 01:45:21;;;;;;;6.90;3.93;;;15.30;99.90;;;;;;4872705;29;20301;-57
2023/06/06 01:47:49;;;;;;;6.37;3.73;;;15.20;99.90;;;;;;4867541;29;20225;-57
2023/06/06 01:50:16;;;;;;;6.27;3.43;;;15.10;99.90;;;;;;4868101;29;20190;-58
2023/06/06 01:52:44;;;;;;;7.37;3.43;;;15.20;99.90;;;;;;4877304;29;20547;-57
2023/06/06 01:55:11;;;;;;;7.13;3.63;;;15.20;99.90;;;;;;4866272;29;20300;-56
2023/06/06 01:57:39;;;;;;;3.73;3.03;;;15.10;99.90;;;;;;4870029;29;20208;-58
2023/06/06 02:00:08;;;;;;;5.93;4.23;;;15.10;99.90;;;;;;4872496;29;20206;-56
2023/06/06 02:02:41;;;;;;;6.53;3.97;;;15.20;99.90;;;;;;4867993;29;20209;-58
2023/06/06 02:05:08;;;;;;;7.33;3.57;;;15.10;99.90;;;;;;4869677;29;20222;-56
2023/06/06 02:07:37;;;;;;;4.07;3.03;;;15.00;99.90;;;;;;4861341;29;20201;-56
2023/06/06 02:10:06;;;;;;;5.37;3.67;;;15.10;99.90;;;;;;4870605;29;20192;-56
2023/06/06 02:12:36;;;;;;;7.93;3.90;;;15.10;99.90;;;;;;4891039;29;20687;-56
2023/06/06 02:15:05;;;;;;;8.73;3.50;;;15.00;99.90;;;;;;4885911;29;20694;-57
2023/06/06 02:17:32;;;;;;;4.77;3.50;;;15.10;99.90;;;;;;4874569;29;20216;-55
2023/06/06 02:19:59;;;;;;;5.87;3.40;;;14.90;99.90;;;;;;4870544;29;20202;-55
2023/06/06 02:22:26;;;;;;;4.70;3.40;;;14.90;99.90;;;;;;4873697;29;20731;-56
2023/06/06 02:24:53;;;;;;;5.07;3.13;;;15.00;99.90;;;;;;4869608;29;20567;-57
2023/06/06 02:27:21;;;;;;;4.23;3.17;;;15.00;99.90;;;;;;4870363;29;20206;-56
2023/06/06 02:29:48;;;;;;;6.13;3.60;;;14.90;99.90;;;;;;4868881;29;20695;-57
2023/06/06 02:32:15;;;;;;;6.47;3.77;;;14.70;99.90;;;;;;4853559;29;20560;-57
2023/06/06 02:34:42;;;;;;;4.73;3.43;;;14.50;99.90;;;;;;4893705;29;20632;-62
2023/06/06 02:37:09;;;;;;;5.47;4.03;;;14.40;99.90;;;;;;4888619;29;20313;-62
2023/06/06 02:39:38;;;;;;;7.13;3.50;;;14.40;99.90;;;;;;4859764;29;20276;-64
2023/06/06 02:42:06;;;;;;;7.17;3.70;;;14.20;99.90;;;;;;4886080;29;20292;-64
2023/06/06 02:44:34;;;;;;;6.43;4.03;;;14.30;99.90;;;;;;4875702;29;20200;-64
2023/06/06 02:47:01;;;;;;;5.77;3.60;;;14.40;99.90;;;;;;4867709;29;20273;-64
2023/06/06 02:49:28;;;;;;;7.37;4.23;;;14.40;99.90;;;;;;4887470;29;20205;-63
2023/06/06 02:51:55;;;;;;;6.43;3.87;;;14.40;99.90;;;;;;4890333;29;20193;-68
2023/06/06 02:54:22;;;;;;;6.40;3.67;;;14.30;99.90;;;;;;4870719;29;20224;-57
2023/06/06 02:56:50;;;;;;;6.10;3.67;;;14.30;99.90;;;;;;4875628;29;20233;-56
2023/06/06 02:59:17;;;;;;;6.57;4.00;;;14.20;99.90;;;;;;4875490;29;20648;-56
2023/06/06 03:01:44;;;;;;;5.60;3.60;;;14.00;99.90;;;;;;4867622;29;20228;-56
2023/06/06 03:04:14;;;;;;;6.07;3.83;;;14.00;99.90;;;;;;4868370;29;20202;-57
2023/06/06 03:06:42;;;;;;;8.07;3.90;;;13.90;99.90;;;;;;4872017;29;20241;-58
2023/06/06 03:09:09;;;;;;;6.97;4.20;;;13.90;99.90;;;;;;4874635;29;20219;-57
2023/06/06 03:11:38;;;;;;;7.67;3.73;;;13.90;99.90;;;;;;4873756;29;20229;-56
2023/06/06 03:14:07;;;;;;;7.47;4.03;;;13.80;99.90;;;;;;4856146;29;20549;-57
2023/06/06 03:16:36;;;;;;;10.40;4.57;;;13.80;99.90;;;;;;4890526;29;20556;-56
2023/06/06 03:19:04;;;;;;;8.17;3.90;;;13.80;99.90;;;;;;4893306;29;20220;-56
2023/06/06 03:21:33;;;;;;;4.67;3.27;;;13.70;99.90;;;;;;4855119;29;20208;-56
2023/06/06 03:24:01;;;;;;;8.43;3.73;;;13.70;99.90;;;;;;4889835;29;20553;-56
2023/06/06 03:26:29;;;;;;;5.53;4.13;;;13.80;99.90;;;;;;4872905;29;20405;-57
2023/06/06 03:29:00;;;;;;;7.10;4.13;;;14.00;99.90;;;;;;4877323;29;20196;-64
2023/06/06 03:31:32;;;;;;;7.60;4.07;;;14.10;99.90;;;;;;4887650;29;20193;-58
2023/06/06 03:34:01;;;;;;;7.93;4.73;;;14.00;99.90;;;;;;4872208;29;20265;-58
2023/06/06 03:36:33;;;;;;;9.73;4.10;;;14.00;99.90;;;;;;4872857;29;20252;-57
2023/06/06 03:39:03;;;;;;;8.03;4.53;;;13.80;99.90;;;;;;4873324;29;20205;-57
2023/06/06 03:41:31;;;;;;;7.73;4.17;;;13.70;99.90;;;;;;4866970;29;20209;-55
2023/06/06 03:44:00;;;;;;;8.63;4.63;;;13.70;99.90;;;;;;4870318;29;20224;-56
2023/06/06 03:46:27;;;;;;;7.97;4.80;;;13.70;99.90;;;;;;4871968;29;20719;-56
2023/06/06 03:48:54;;;;;;;7.13;3.63;;;13.80;99.90;;;;;;4893302;29;20188;-56
2023/06/06 03:51:21;;;;;;;8.03;4.40;;;14.00;99.90;;;;;;4893925;29;20220;-56
2023/06/06 03:53:48;;;;;;;5.23;3.70;;;14.20;99.90;;;;;;4875282;29;20201;-69
2023/06/06 03:56:16;;;;;;;7.03;3.97;;;14.50;99.90;;;;;;4879192;29;20197;-58
2023/06/06 03:58:43;;;;;;;11.53;6.07;;;14.80;99.90;;;;;;4888190;29;20292;-59
2023/06/06 04:01:11;;;;;;;10.57;6.53;;;15.40;99.90;;;;;;4865223;29;20209;-58
2023/06/06 04:03:38;;;;;;;9.00;6.03;;;15.90;99.90;;;;;;4857215;29;20216;-57
2023/06/06 04:06:07;;;;;;;14.37;7.67;;;15.70;99.90;;;;;;4871785;29;20241;-58
2023/06/06 04:08:37;;;;;;;9.23;6.17;;;15.90;99.90;;;;;;4853781;29;20304;-60
2023/06/06 04:11:04;;;;;;;10.93;5.23;;;16.20;99.90;;;;;;4869944;29;20347;-77
2023/06/06 04:13:31;;;;;;;8.97;5.67;;;16.30;99.90;;;;;;4869227;29;20209;-57
2023/06/06 04:15:58;;;;;;;9.75;4.15;;;16.30;99.90;;;;;;4872030;29;20693;-58
2023/06/06 04:18:26;;;;;;;6.93;4.68;;;16.60;99.90;;;;;;4855237;29;20217;-60
2023/06/06 04:20:53;;;;;;;6.28;4.47;;;17.30;99.90;;;;;;4871207;29;20707;-58
2023/06/06 04:23:21;;;;;;;7.20;5.03;;;17.60;99.90;;;;;;4871947;29;20229;-58
2023/06/06 04:25:48;;;;;;;10.32;5.00;;;18.00;99.90;;;;;;4854934;29;20280;-58
2023/06/06 04:28:19;;;;;;;8.75;4.47;;;18.30;99.90;;;;;;4868721;29;20250;-59
2023/06/06 04:30:47;;;;;;;5.50;3.92;;;18.70;99.90;;;;;;4856411;29;20201;-58
2023/06/06 04:33:16;;;;;;;5.45;3.88;;;19.00;99.90;;;;;;4857800;29;20201;-59
2023/06/06 04:35:44;;;;;;;6.97;3.75;;;19.40;99.90;;;;;;4870072;29;20201;-58
2023/06/06 04:38:12;;;;;;;5.60;3.53;;;19.40;99.90;;;;;;4853244;29;20702;-66
2023/06/06 04:40:40;;;;;;;8.73;4.15;;;18.90;99.90;;;;;;4854337;29;20699;-61
2023/06/06 04:43:27;;;;;;;8.32;4.55;;;18.90;99.90;;;;;;4871234;29;20220;-68
2023/06/06 04:46:00;;;;;;;5.35;4.00;;;19.20;99.90;;;;;;4870909;29;20209;-59
2023/06/06 04:48:28;;;;;;;10.50;5.03;;;19.60;99.90;;;;;;4856002;29;20204;-69
2023/06/06 04:50:56;;;;;;;6.07;4.35;;;19.40;99.90;;;;;;4867710;29;20281;-59
2023/06/06 04:53:25;;;;;;;12.25;5.53;;;20.20;99.90;;;;;;4871395;29;20624;-60
2023/06/06 04:55:55;;;;;;;10.25;5.90;;;19.70;99.90;;;;;;4887723;29;20205;-61
2023/06/06 04:58:23;;;;;;;6.88;4.85;;;20.40;99.90;;;;;;4852614;29;20213;-59
2023/06/06 05:00:50;;;;;;;9.95;4.65;;;21.00;99.90;;;;;;4884421;29;20300;-60
2023/06/06 05:03:20;;;;;;;6.97;4.35;;;21.10;99.90;;;;;;4886802;29;20561;-59
2023/06/06 05:05:49;;;;;;;6.45;4.18;;;21.60;99.90;;;;;;4850985;29;20234;-59
2023/06/06 05:08:16;;;;;;;7.75;4.43;;;22.10;99.90;;;;;;4865974;29;20201;-59
2023/06/06 05:10:43;;;;;;;5.75;4.15;;;22.00;99.90;;;;;;4864833;29;20729;-59
2023/06/06 05:13:11;;;;;;;5.35;3.70;;;22.10;99.90;;;;;;4868496;29;20198;-59
2023/06/06 05:15:38;;;;;;;6.55;3.72;;;22.00;99.90;;;;;;4866603;29;20684;-59
2023/06/06 05:18:05;;;;;;;5.57;3.22;;;22.70;99.90;;;;;;4866019;29;20234;-60
2023/06/06 05:20:32;;;;;;;6.95;4.25;;;23.40;99.90;;;;;;4871433;29;20656;-59
2023/06/06 05:22:59;;;;;;;6.97;4.53;;;23.60;99.90;;;;;;4867688;29;20700;-60
2023/06/06 05:25:27;;;;;;;7.28;5.07;;;24.10;99.90;;;;;;4865172;29;20285;-60
2023/06/06 05:27:55;;;;;;;8.98;5.50;;;23.90;99.90;;;;;;4868688;29;20202;-60
2023/06/06 05:30:22;;;;;;;7.20;4.75;;;24.20;99.90;;;;;;4871325;29;20292;-61
2023/06/06 05:32:49;;;;;;;7.22;4.82;;;24.60;99.90;;;;;;4869352;29;20611;-65
2023/06/06 05:35:16;;;;;;;8.00;4.25;;;25.10;99.90;;;;;;4871344;29;20205;-63
2023/06/06 05:37:44;;;;;;;8.10;5.18;;;24.00;99.90;;;;;;4870591;29;20198;-60
2023/06/06 05:40:11;;;;;;;5.85;3.58;;;24.20;99.90;;;;;;4870644;29;20208;-60
2023/06/06 05:42:38;;;;;;;6.53;4.30;;;24.20;99.90;;;;;;4871884;29;20206;-60
2023/06/06 05:45:06;;;;;;;9.75;4.15;;;24.60;99.90;;;;;;4870243;29;20317;-61
2023/06/06 05:47:33;;;;;;;7.75;3.92;;;24.70;99.90;;;;;;4872138;29;20297;-61
2023/06/06 05:50:00;;;;;;;6.15;4.28;;;25.80;99.90;;;;;;4872755;29;20200;-60
2023/06/06 05:52:28;;;;;;;6.22;3.80;;;26.60;99.90;;;;;;4869351;29;20206;-60
2023/06/06 05:55:03;;;;;;;7.18;4.22;;;27.20;99.90;;;;;;4869436;29;20235;-60
2023/06/06 05:57:30;;;;;;;5.82;4.07;;;27.20;99.90;;;;;;4870890;29;20349;-60
2023/06/06 06:00:00;;;;;;;7.03;4.82;;;27.60;99.90;;;;;;4871304;29;20194;-60
2023/06/06 06:02:38;;;;;;;6.20;4.43;;;27.90;99.90;;;;;;4863553;29;20750;-60
2023/06/06 06:05:06;;;;;;;9.82;5.38;;;26.80;99.90;;;;;;4868940;29;20341;-60
2023/06/06 06:07:33;;;;;;;8.52;4.55;;;27.70;99.90;;;;;;4888067;29;20232;-60
2023/06/06 06:10:01;;;;;;;5.57;4.07;;;28.50;99.90;;;;;;4873180;29;20205;-68
2023/06/06 06:12:28;;;;;;;5.50;4.00;;;28.70;99.90;;;;;;4866292;29;20253;-68
2023/06/06 06:14:55;;;;;;;8.57;4.03;;;28.60;99.90;;;;;;4884700;29;20902;-68
2023/06/06 06:17:22;;;;;;;5.85;4.28;;;28.80;99.90;;;;;;4871581;29;20200;-67
2023/06/06 06:19:49;;;;;;;7.43;4.13;;;29.30;99.90;;;;;;4872078;29;20225;-68
2023/06/06 06:22:17;;;;;;;5.68;3.65;;;29.90;99.90;;;;;;4887898;29;20712;-68
2023/06/06 06:24:44;;;;;;;8.98;4.10;;;29.70;99.90;;;;;;4883797;29;20238;-68
2023/06/06 06:27:11;;;;;;;7.78;4.47;;;30.10;99.90;;;;;;4870676;29;20209;-68
2023/06/06 06:29:38;;;;;;;4.85;4.28;;;30.20;99.90;;;;;;4887241;29;20216;-68
2023/06/06 06:32:05;;;;;;;6.78;4.20;;;30.80;99.90;;;;;;4888824;29;20199;-68
2023/06/06 06:34:33;;;;;;;6.95;4.57;;;30.20;99.90;;;;;;4871510;29;20571;-66
2023/06/06 06:37:01;;;;;;;5.97;3.88;;;31.00;99.90;;;;;;4887730;29;20254;-68
2023/06/06 06:39:28;;;;;;;7.22;3.80;;;31.20;99.90;;;;;;4853664;29;20703;-66
2023/06/06 06:41:56;;;;;;;6.10;4.30;;;31.80;99.90;;;;;;4886785;29;20197;-67
2023/06/06 06:44:33;;;;;;;7.28;4.90;;;31.40;99.90;;;;;;4872026;29;20229;-67
2023/06/06 06:47:03;;;;;;;7.30;5.07;;;29.90;99.90;;;;;;4888558;29;20212;-69
2023/06/06 06:49:30;;;;;;;6.63;4.28;;;29.10;99.90;;;;;;4858739;29;20214;-67
2023/06/06 06:51:58;;;;;;;7.05;4.90;;;31.30;99.90;;;;;;4870691;29;20207;-67
2023/06/06 06:54:26;;;;;;;6.95;4.45;;;31.90;99.90;;;;;;4869371;29;20978;-67
2023/06/06 06:56:53;;;;;;;4.70;4.20;;;32.60;99.90;;;;;;4867606;29;20559;-67
2023/06/06 06:59:21;;;;;;;8.23;4.78;;;32.80;99.90;;;;;;4870736;29;20746;-69
2023/06/06 07:01:49;;;;;;;7.03;4.45;;;33.70;99.90;;;;;;4885453;29;20204;-67
2023/06/06 07:04:20;;;;;;;5.68;4.28;;;33.10;99.90;;;;;;4888598;29;20296;-67
2023/06/06 07:06:47;;;;;;;7.07;3.83;;;33.50;99.90;;;;;;4870586;29;20260;-66
2023/06/06 07:09:15;;;;;;;5.00;4.15;;;34.20;99.90;;;;;;4869677;29;20237;-66
2023/06/06 07:11:42;;;;;;;8.05;4.28;;;34.00;99.90;;;;;;4886457;29;20197;-66
2023/06/06 07:14:09;;;;;;;7.18;4.75;;;34.00;99.90;;;;;;4870276;29;20708;-68
2023/06/06 07:16:36;;;;;;;6.45;4.55;;;34.20;99.90;;;;;;4866679;29;20719;-67
2023/06/06 07:19:05;;;;;;;10.18;4.25;;;34.20;99.90;;;;;;4854843;29;20227;-67
2023/06/06 07:21:32;;;;;;;8.88;4.93;;;35.20;99.70;;;;;;4871630;29;20272;-67
2023/06/06 07:23:59;;;;;;;9.05;4.70;;;34.70;99.10;;;;;;4868769;29;20229;-66
2023/06/06 07:26:27;;;;;;;9.80;4.53;;;35.10;99.60;;;;;;4885103;29;20292;-67
2023/06/06 07:28:55;;;;;;;6.93;4.38;;;35.10;98.50;;;;;;4867138;29;20213;-68
2023/06/06 07:31:22;;;;;;;7.20;5.28;;;35.70;98.90;;;;;;4885656;29;20196;-68
2023/06/06 07:33:49;;;;;;;7.65;4.10;;;35.80;97.50;;;;;;4885601;29;20204;-68
2023/06/06 07:36:16;;;;;;;6.90;4.65;;;36.30;98.10;;;;;;4886530;29;20200;-68
2023/06/06 07:38:43;;;;;;;8.15;4.15;;;37.30;96.60;;;;;;4871227;29;20240;-67
2023/06/06 07:41:10;;;;;;;7.57;3.95;;;37.20;96.00;;;;;;4887658;29;20208;-69
2023/06/06 07:43:38;;;;;;;9.43;4.20;;;36.20;96.20;;;;;;4884991;29;20745;-68
2023/06/06 07:46:08;;;;;;;5.72;4.38;;;36.50;95.10;;;;;;4852357;29;20204;-68
2023/06/06 07:48:35;;;;;;;5.25;4.20;;;36.40;95.50;;;;;;4870582;29;20210;-68
2023/06/06 07:51:02;;;;;;;12.18;4.47;;;34.70;93.80;;;;;;4886379;29;20188;-66
2023/06/06 07:53:29;;;;;;;6.95;4.30;;;33.20;94.80;;;;;;4868699;29;20718;-65
2023/06/06 07:55:56;;;;;;;6.93;3.92;;;34.30;95.30;;;;;;4884257;29;20766;-67
2023/06/06 07:58:41;;;;;;;4.93;3.83;;;34.00;95.50;;;;;;4884724;29;20226;-66
2023/06/06 08:01:10;;;;;;;13.15;4.82;;;34.90;96.40;;;;;;4882845;29;20200;-66
2023/06/06 08:03:39;;;;;;;4.90;3.17;;;34.60;94.60;;;;;;4870058;29;20311;-66
2023/06/06 08:06:06;;;;;;;5.20;3.08;;;35.70;95.50;;;;;;4887715;29;20328;-69
2023/06/06 08:08:33;;;;;;;7.35;4.00;;;37.00;93.80;;;;;;4867220;29;20215;-68
2023/06/06 08:11:00;;;;;;;5.55;4.00;;;36.50;93.40;;;;;;4869080;29;20196;-69
2023/06/06 08:13:27;;;;;;;7.50;4.25;;;36.80;93.40;;;;;;4886709;29;20200;-69
2023/06/06 08:15:54;;;;;;;5.68;4.43;;;37.70;93.30;;;;;;4869695;29;20199;-69
2023/06/06 08:18:21;;;;;;;8.13;4.50;;;36.50;92.00;;;;;;4851825;29;20295;-69
2023/06/06 08:20:48;;;;;;;5.00;4.03;;;35.10;93.20;;;;;;4882033;29;20256;-69
2023/06/06 08:23:15;;;;;;;8.48;4.70;;;36.70;92.70;;;;;;4882984;29;20196;-69
2023/06/06 08:25:42;;;;;;;5.50;3.80;;;36.30;91.90;;;;;;4867959;29;20294;-69
2023/06/06 08:28:09;;;;;;;6.45;4.30;;;36.90;92.50;;;;;;4883370;29;20201;-67
2023/06/06 08:30:37;;;;;;;6.93;4.07;;;36.90;92.40;;;;;;4884477;29;20197;-68
2023/06/06 08:33:04;;;;;;;7.53;4.20;;;38.30;91.40;;;;;;4870461;29;20207;-67
2023/06/06 08:35:31;;;;;;;5.10;4.10;;;36.70;92.10;;;;;;4885245;29;20279;-67
2023/06/06 08:37:58;;;;;;;4.68;3.63;;;36.90;91.00;;;;;;4884414;29;20628;-68
2023/06/06 08:40:25;;;;;;;6.68;3.95;;;37.10;91.70;;;;;;4883768;29;20546;-68
2023/06/06 08:42:55;;;;;;;5.65;3.47;;;37.30;90.50;;;;;;4886721;29;20655;-68
2023/06/06 08:45:22;;;;;;;8.10;4.32;;;38.20;90.00;;;;;;4885461;29;20238;-68
2023/06/06 08:47:50;;;;;;;6.95;4.78;;;37.40;90.50;;;;;;4866876;29;20841;-68
2023/06/06 08:50:21;;;;;;;4.28;3.45;;;37.30;87.50;;;;;;4867169;29;21154;-67
2023/06/06 08:52:50;;;;;;;6.35;4.22;;;36.60;89.00;;;;;;4879419;29;20658;-68
2023/06/06 08:55:18;;;;;;;7.15;3.85;;;35.40;84.90;;;;;;4866560;29;20559;-68
2023/06/06 08:57:47;;;;;;;7.28;4.68;;;35.10;81.90;;;;;;4882712;29;20259;-67
2023/06/06 09:00:21;;;;;;;8.35;4.32;;;31.80;82.10;;;;;;4885212;29;20205;-67
2023/06/06 09:02:51;;;;;;;4.72;3.83;;;31.30;87.00;;;;;;4866768;29;20196;-67
2023/06/06 09:05:21;;;;;;;5.72;4.13;;;33.40;90.40;;;;;;4871549;29;20229;-68
2023/06/06 09:07:49;;;;;;;8.10;4.53;;;34.20;88.70;;;;;;4870426;29;20193;-68
2023/06/06 09:10:17;;;;;;;6.35;4.10;;;35.00;86.00;;;;;;4871660;29;20239;-67
2023/06/06 09:12:46;;;;;;;6.95;4.55;;;35.30;85.80;;;;;;4854898;29;21090;-68
2023/06/06 09:15:14;;;;;;;4.78;3.70;;;35.30;86.00;;;;;;4889645;29;20647;-68
2023/06/06 09:17:44;;;;;;;5.57;3.67;;;35.70;84.90;;;;;;4889897;29;20296;-68
2023/06/06 09:20:14;;;;;;;7.57;4.18;;;35.00;80.70;;;;;;4888202;29;20208;-67
2023/06/06 09:22:46;;;;;;;8.55;4.40;;;35.10;83.50;;;;;;4870473;29;20211;-68
2023/06/06 09:25:26;;;;;;;5.70;3.90;;;35.80;82.60;;;;;;4853542;29;20659;-68
2023/06/06 09:28:01;;;;;;;6.70;4.75;;;35.50;83.90;;;;;;4888509;29;20210;-68
2023/06/06 09:30:30;;;;;;;5.65;3.83;;;35.80;81.00;;;;;;4886544;29;20196;-67
2023/06/06 09:33:00;;;;;;;5.38;3.78;;;36.10;81.60;;;;;;4886878;29;20193;-67
2023/06/06 09:35:33;;;;;;;4.22;3.60;;;35.00;83.70;;;;;;4885554;29;20188;-67
2023/06/06 09:38:18;;;;;;;8.00;3.53;;;35.20;84.20;;;;;;4890095;29;20224;-67
2023/06/06 09:40:50;;;;;;;5.40;4.18;;;36.40;82.40;;;;;;4854244;29;20223;-68
2023/06/06 09:43:24;;;;;;;5.45;3.60;;;36.30;79.50;;;;;;4890326;29;20738;-68
2023/06/06 09:45:54;;;;;;;8.50;5.00;;;36.20;79.60;;;;;;4854652;29;20212;-68
2023/06/06 09:48:29;;;;;;;6.00;3.20;;;36.30;77.90;;;;;;4872395;29;20200;-68
2023/06/06 09:50:57;;;;;;;5.93;3.90;;;36.80;78.90;;;;;;4887028;29;21045;-68
2023/06/06 09:53:25;;;;;;;5.20;3.95;;;37.80;75.40;;;;;;4887824;29;20566;-68
2023/06/06 09:55:57;;;;;;;5.63;3.65;;;35.20;75.70;;;;;;4888457;29;21262;-68
2023/06/06 09:58:29;;;;;;;7.53;3.58;;;33.70;77.20;;;;;;4887906;29;20200;-68
2023/06/06 10:00:58;;;;;;;7.32;4.28;;;34.90;74.10;;;;;;4872349;29;20200;-68
2023/06/06 10:03:26;;;;;;;4.85;3.40;;;35.60;77.50;;;;;;4871182;29;20208;-68
2023/06/06 10:05:54;;;;;;;4.18;3.17;;;37.20;75.60;;;;;;4867909;29;20731;-67
2023/06/06 10:08:22;;;;;;;5.43;3.50;;;35.90;74.60;;;;;;4870899;29;20205;-68
2023/06/06 10:10:50;;;;;;;4.95;2.83;;;36.60;75.20;;;;;;4866273;29;20776;-68
2023/06/06 10:13:38;;;;;;;5.20;3.53;;;37.50;72.10;;;;;;4870428;29;20192;-68
2023/06/06 10:16:06;;;;;;;6.05;3.35;;;38.00;70.60;;;;;;4868921;29;20684;-67
2023/06/06 10:18:34;;;;;;;5.35;3.88;;;36.40;69.00;;;;;;4871692;29;20204;-67
2023/06/06 10:21:03;;;;;;;5.60;3.72;;;35.20;69.90;;;;;;4869863;29;20911;-68
2023/06/06 10:23:30;;;;;;;5.25;3.38;;;34.40;70.50;;;;;;4861475;29;20205;-68
2023/06/06 10:25:59;;;;;;;5.32;3.30;;;34.90;70.80;;;;;;4870248;29;21001;-66
2023/06/06 10:28:33;;;;;;;4.22;2.90;;;35.90;70.20;;;;;;4870254;29;20584;-69
2023/06/06 10:31:56;;;;;;;3.85;3.28;;;36.00;69.50;;;;;;4868465;29;20648;-69
2023/06/06 10:34:32;;;;;;;3.83;2.78;;;36.60;69.00;;;;;;4863881;29;20727;-68
2023/06/06 10:37:20;;;;;;;3.40;2.88;;;35.80;68.90;;;;;;4866016;29;21144;-67
2023/06/06 10:39:58;;;;;;;5.10;3.30;;;36.80;67.90;;;;;;4869176;29;20197;-72
2023/06/06 10:42:38;;;;;;;5.65;3.78;;;36.30;64.70;;;;;;4867544;29;20213;-68
2023/06/06 10:45:07;;;;;;;6.18;3.80;;;34.90;66.40;;;;;;4868337;29;20232;-68
2023/06/06 10:47:39;;;;;;;5.05;3.25;;;36.10;66.90;;;;;;4868891;29;20201;-69
2023/06/06 10:50:11;;;;;;;4.43;2.65;;;36.30;91.10;;;;;;4869113;29;20647;-68
2023/06/06 10:52:51;;;;;;;5.63;3.03;;;35.00;65.70;;;;;;4865753;29;20198;-68
2023/06/06 10:55:24;;;;;;;3.95;2.95;;;34.40;66.50;;;;;;4868106;29;20211;-68
2023/06/06 10:57:53;;;;;;;5.05;2.80;;;35.80;91.20;;;;;;4866312;29;20219;-69
2023/06/06 11:00:25;;;;;;;3.70;2.90;;;36.80;65.50;;;;;;4868814;29;20652;-69
2023/06/06 11:02:57;;;;;;;8.73;2.95;;;36.40;63.70;;;;;;4870156;29;20205;-69
2023/06/06 11:05:25;;;;;;;5.55;2.58;;;35.20;66.40;;;;;;4873655;29;20255;-69
2023/06/06 11:07:57;;;;;;;5.78;3.08;;;34.70;65.90;;;;;;4887899;29;20796;-67
2023/06/06 11:10:28;;;;;;;3.83;3.00;;;33.70;64.80;;;;;;4886899;29;20633;-67
2023/06/06 11:12:56;;;;;;;3.30;2.67;;;33.30;65.00;;;;;;4880909;29;20404;-68
2023/06/06 11:15:30;;;;;;;3.97;2.90;;;32.90;67.60;;;;;;4869897;29;20228;-67
2023/06/06 11:18:03;;;;;;;3.80;2.80;;;33.80;67.20;;;;;;4888259;29;20200;-67
2023/06/06 11:20:40;;;;;;;5.40;2.53;;;33.60;65.00;;;;;;4863146;29;20339;-67
2023/06/06 11:23:10;;;;;;;4.97;2.60;;;33.80;64.40;;;;;;4881765;29;20200;-66
2023/06/06 11:25:38;;;;;;;5.13;3.38;;;33.40;64.70;;;;;;4874331;29;20317;-66
2023/06/06 11:28:06;;;;;;;3.85;2.40;;;32.90;66.40;;;;;;4862496;29;20341;-68
2023/06/06 11:30:35;;;;;;;4.43;2.78;;;33.00;66.60;;;;;;4882900;29;20564;-69
2023/06/06 11:33:09;;;;;;;4.05;2.58;;;32.30;67.80;;;;;;4871515;29;20221;-68
2023/06/06 11:35:39;;;;;;;6.30;2.90;;;30.60;68.20;;;;;;4872198;29;20712;-68
2023/06/06 11:38:07;;;;;;;4.32;2.80;;;29.60;68.80;;;;;;4870405;29;20287;-68
2023/06/06 11:40:34;;;;;;;2.22;1.95;;;29.70;70.00;;;;;;4888882;29;20202;-68
2023/06/06 11:43:02;;;;;;;2.90;2.25;;;30.10;69.40;;;;;;4890345;29;20655;-69
2023/06/06 11:45:31;;;;;;;5.10;2.40;;;30.40;69.60;;;;;;4868464;29;20224;-69
2023/06/06 11:47:58;;;;;;;3.28;2.47;;;30.80;70.10;;;;;;4889961;29;20232;-68
2023/06/06 11:50:48;;;;;;;3.42;2.80;;;30.40;69.40;;;;;;4884050;29;20256;-67
2023/06/06 11:53:31;;;;;;;6.70;3.67;;;29.50;70.90;;;;;;4857772;29;20296;-72
2023/06/06 11:55:58;;;;;;;2.47;2.28;;;29.80;71.30;;;;;;4882643;29;20990;-74
2023/06/06 11:58:26;;;;;;;6.85;2.60;;;30.70;72.80;;;;;;4895081;29;20924;-70
2023/06/06 12:00:56;;;;;;;3.63;2.63;;;30.70;69.70;;;;;;4873964;29;20209;-69
2023/06/06 12:03:34;;;;;;;3.63;2.63;;;30.10;72.30;;;;;;4894240;29;20735;-68
2023/06/06 12:06:06;;;;;;;3.60;2.40;;;29.80;69.40;;;;;;4890149;29;20906;-68
2023/06/06 12:08:34;;;;;;;5.20;2.33;;;29.50;70.60;;;;;;4887794;29;20188;-69
2023/06/06 12:11:21;;;;;;;5.43;2.55;;;30.00;71.30;;;;;;4871849;29;20213;-69
2023/06/06 12:13:49;;;;;;;6.25;2.60;;;30.30;70.20;;;;;;4890460;29;20196;-69
2023/06/06 12:16:23;;;;;;;4.68;2.28;;;29.40;69.50;;;;;;4873322;29;20208;-68
2023/06/06 12:18:51;;;;;;;5.70;2.45;;;29.50;69.30;;;;;;4867997;29;20207;-68
2023/06/06 12:21:18;;;;;;;7.10;2.50;;;29.70;72.30;;;;;;4864187;29;20200;-69
2023/06/06 12:23:46;;;;;;;4.18;2.70;;;29.30;70.90;;;;;;4866763;29;20217;-68
2023/06/06 12:26:18;;;;;;;2.55;1.98;;;30.00;73.20;;;;;;4890561;29;20344;-69
2023/06/06 12:28:58;;;;;;;5.47;2.53;;;30.20;70.90;;;;;;4889259;29;20193;-67
2023/06/06 12:31:27;;;;;;;7.07;2.33;;;29.90;71.40;;;;;;4877978;29;20200;-68
2023/06/06 12:33:57;;;;;;;4.10;2.47;;;28.80;70.80;;;;;;4886701;29;20199;-67
2023/06/06 12:36:26;;;;;;;4.07;2.35;;;28.70;74.30;;;;;;4896590;29;20301;-69
2023/06/06 12:38:57;;;;;;;3.78;2.45;;;29.10;72.60;;;;;;4892471;29;20197;-70
2023/06/06 12:41:41;;;;;;;2.75;2.33;;;29.30;71.20;;;;;;4900624;29;20213;-69
2023/06/06 12:44:11;;;;;;;4.32;2.30;;;29.40;72.60;;;;;;4874948;29;20770;-68
2023/06/06 12:46:43;;;;;;;3.58;2.30;;;28.60;71.30;;;;;;4875295;29;20609;-69
2023/06/06 12:49:11;;;;;;;5.43;2.38;;;28.70;75.60;;;;;;4880314;29;20212;-68
2023/06/06 12:51:39;;;;;;;3.88;2.30;;;28.90;73.80;;;;;;4877024;29;20193;-68
2023/06/06 12:54:06;;;;;;;4.53;2.17;;;28.50;74.10;;;;;;4893105;29;20197;-60
2023/06/06 12:56:33;;;;;;;4.63;2.35;;;28.60;74.60;;;;;;4901609;29;20209;-61